»·PEaware :: DAL2445 KLAS-KLAX

DAL2445 :: KLAS-KLAX

FLIGHT INFORMATION

Flight Status: Arrived
Operator:
Delta Air Lines
More flights by this operator :: More flights under this callsign
Pilot: Chris H. (15401)
Aircraft: BOEING 737-800
(B738)
More flights by this aircraft type
Origin: KLAS McCarran Intl
United States
Destination: KLAX Los Angeles Intl
United States
More flights between these airports :: More routes between these airports
Route: BOACH8 RIKII SHTNR ANJLL4
File this flight plan on PilotEdge
Remarks:
Altitude:
(Current/Filed)
28,000ft
Speed:
(Current/Filed)
467kts
Departed: 08-Oct-18 10:01 PM
Arrived: 08-Oct-18 10:41 PM
Distance/Time
Traveled:
205nm/0:40
Distance/Time
To Go:
Arrived

Flight Plot

Page will automatically refresh every two minutes.

Flight plan parsing failed; only flown route is shown


Map Options




Map Legend


Flown Route
Filed Route
Departure Airport
Arrival Airport
Navaid (VOR, NDB)
Fix

Horizontal Profiles

Position Reports

Time Latitude Longitude Heading Altitude Ground
Speed
08-Oct-18 21:47 36.080272 -115.140662 95 2189ft 0kts
08-Oct-18 21:48 36.080272 -115.140662 95 2189ft 0kts
08-Oct-18 21:49 36.080272 -115.140662 95 2189ft 0kts
08-Oct-18 21:50 36.080272 -115.140662 95 2189ft 0kts
08-Oct-18 21:51 36.080272 -115.140662 95 2189ft 0kts
08-Oct-18 21:52 36.080277 -115.140736 95 2189ft 1kts
08-Oct-18 21:53 36.080668 -115.141371 184 2189ft 0kts
08-Oct-18 21:54 36.080666 -115.141371 184 2189ft 0kts
08-Oct-18 21:55 36.080664 -115.141371 184 2189ft 0kts
08-Oct-18 21:56 36.079428 -115.141590 181 2189ft 11kts
08-Oct-18 21:57 36.078255 -115.138723 88 2189ft 15kts
08-Oct-18 21:58 36.078251 -115.131249 90 2189ft 34kts
08-Oct-18 21:59 36.078189 -115.122649 114 2189ft 16kts
08-Oct-18 22:00 36.077570 -115.121533 138 2189ft 0kts
08-Oct-18 22:01 36.077567 -115.121530 138 2189ft 0kts
08-Oct-18 22:02 36.076423 -115.121648 261 2189ft 13kts
08-Oct-18 22:03 36.076412 -115.137087 269 2189ft 153kts
08-Oct-18 22:04 36.076760 -115.198908 268 4976ft 196kts
08-Oct-18 22:05 36.051589 -115.270156 203 6584ft 280kts
08-Oct-18 22:06 35.975047 -115.298140 197 7026ft 289kts
08-Oct-18 22:07 35.893579 -115.310965 186 10101ft 305kts
08-Oct-18 22:08 35.800783 -115.309279 173 12216ft 362kts
08-Oct-18 22:09 35.697399 -115.296898 175 15370ft 384kts
08-Oct-18 22:10 35.588398 -115.298033 184 18302ft 402kts
08-Oct-18 22:11 35.476488 -115.321732 210 20775ft 416kts
08-Oct-18 22:12 35.375813 -115.395326 216 23285ft 425kts
08-Oct-18 22:13 35.273986 -115.469939 217 25928ft 427kts
08-Oct-18 22:14 35.171368 -115.544148 217 27872ft 433kts
08-Oct-18 22:15 35.074405 -115.639511 235 27908ft 464kts
08-Oct-18 22:16 34.982461 -115.759097 234 27912ft 499kts
08-Oct-18 22:17 34.886056 -115.882361 233 27919ft 500kts
08-Oct-18 22:18 34.799714 -115.991721 233 27926ft 501kts
08-Oct-18 22:19 34.799714 -115.991721 233 27926ft 501kts
08-Oct-18 22:30 34.102930 -117.379859 257 13892ft 338kts
08-Oct-18 22:31 34.075717 -117.488337 256 12166ft 336kts
08-Oct-18 22:32 34.041477 -117.587383 249 11908ft 301kts
08-Oct-18 22:33 34.009057 -117.677336 252 11007ft 288kts
08-Oct-18 22:34 33.998227 -117.771588 264 9969ft 284kts
08-Oct-18 22:35 33.988906 -117.867244 263 8442ft 290kts
08-Oct-18 22:36 33.981207 -117.962698 262 6927ft 278kts
08-Oct-18 22:37 33.971411 -118.053640 262 5446ft 263kts
08-Oct-18 22:38 33.962663 -118.137381 262 4116ft 239kts
08-Oct-18 22:39 33.954797 -118.213149 262 2921ft 216kts
08-Oct-18 22:40 33.947854 -118.280587 262 1862ft 187kts
08-Oct-18 22:41 33.941933 -118.338281 262 943ft 155kts
08-Oct-18 22:42 33.936901 -118.389432 262 138ft 143kts
08-Oct-18 22:43 33.934526 -118.413066 260 134ft 38kts
08-Oct-18 22:44 33.935682 -118.419147 354 134ft 18kts
08-Oct-18 22:45 33.937308 -118.415336 81 134ft 13kts
08-Oct-18 22:46 33.937887 -118.409279 84 134ft 11kts
08-Oct-18 22:47 33.938149 -118.406694 82 134ft 2kts
08-Oct-18 22:48 33.938189 -118.406314 82 134ft 0kts
08-Oct-18 22:49 33.938189 -118.406311 82 134ft 0kts
08-Oct-18 22:50 33.939110 -118.405355 348 134ft 13kts
08-Oct-18 22:51 33.940504 -118.405359 76 134ft 2kts
08-Oct-18 22:52 33.940506 -118.405081 88 134ft 0kts
08-Oct-18 22:53 33.940506 -118.405081 88 134ft 0kts
08-Oct-18 22:54 33.940506 -118.405081 88 134ft 0kts
08-Oct-18 22:55 33.940506 -118.405081 88 134ft 0kts
08-Oct-18 22:56 33.940506 -118.405081 88 134ft 0kts
08-Oct-18 22:57 33.940506 -118.405081 88 134ft 0kts

Navigation Log

Ident Type
Flight plan parsing failed, navigation log unavailable